»·PEaware :: N507H 11CL-KFUL

N507H :: 11CL-KFUL

FLIGHT INFORMATION

Flight Status: Arrived
Operator: Privately registered:
United States
More flights under this callsign
Pilot: Terry D. (17346)
Aircraft: PILATUS PC-12 EAGLE
(PC12)
More flights by this aircraft type
Origin: 11CL Hansen
United States
Destination: KFUL Fullerton Mun
United States
More flights between these airports :: More routes between these airports
Route: +PMD V201 BERRI V459 SLI
File this flight plan on PilotEdge
Remarks:
Altitude:
(Current/Filed)
9,000ft
Speed:
(Current/Filed)
270kts
Departed: 29-Mar-18 10:03 AM
Arrived: 29-Mar-18 10:46 AM
Distance/Time
Traveled:
48nm/0:43
Distance/Time
To Go:
Arrived

Flight Plot

Page will automatically refresh every two minutes.

Flight plan parsing failed; only flown route is shown


Map Options




Map Legend


Flown Route
Filed Route
Departure Airport
Arrival Airport
Navaid (VOR, NDB)
Fix

Horizontal Profiles

Position Reports

Time Latitude Longitude Heading Altitude Ground
Speed
29-Mar-18 09:40 34.629952 -117.651566 268 2858ft 0kts
29-Mar-18 09:41 34.629952 -117.651566 268 2858ft 0kts
29-Mar-18 09:42 34.629952 -117.651566 268 2858ft 0kts
29-Mar-18 09:43 34.629952 -117.651566 268 2858ft 0kts
29-Mar-18 09:44 34.629952 -117.651566 268 2858ft 0kts
29-Mar-18 09:45 34.629952 -117.651566 268 2858ft 0kts
29-Mar-18 09:46 34.629952 -117.651566 268 2858ft 0kts
29-Mar-18 09:47 34.629952 -117.651566 268 2858ft 0kts
29-Mar-18 09:48 34.629952 -117.651566 268 2858ft 0kts
29-Mar-18 09:49 34.629952 -117.651566 268 2858ft 0kts
29-Mar-18 09:50 34.629952 -117.651566 268 2858ft 0kts
29-Mar-18 09:51 34.629952 -117.651566 268 2858ft 0kts
29-Mar-18 09:52 34.629952 -117.651566 268 2858ft 0kts
29-Mar-18 09:53 34.629952 -117.651566 268 2858ft 0kts
29-Mar-18 09:54 34.629952 -117.651566 268 2858ft 0kts
29-Mar-18 09:55 34.629952 -117.651566 268 2858ft 0kts
29-Mar-18 09:56 34.629952 -117.651566 268 2858ft 0kts
29-Mar-18 09:57 34.629952 -117.651566 268 2858ft 0kts
29-Mar-18 09:58 34.629952 -117.651566 268 2858ft 0kts
29-Mar-18 09:59 34.629952 -117.651566 268 2858ft 0kts
29-Mar-18 10:00 34.629952 -117.651566 268 2858ft 0kts
29-Mar-18 10:01 34.629952 -117.651566 268 2858ft 0kts
29-Mar-18 10:02 34.629869 -117.661951 269 2975ft 112kts
29-Mar-18 10:03 34.629554 -117.704339 276 3816ft 154kts
29-Mar-18 10:04 34.630024 -117.762093 270 4987ft 189kts
29-Mar-18 10:05 34.630834 -117.828703 270 6297ft 203kts
29-Mar-18 10:06 34.631085 -117.897016 270 7769ft 202kts
29-Mar-18 10:07 34.631260 -117.965449 270 8990ft 212kts
29-Mar-18 10:08 34.629919 -118.041634 253 9023ft 238kts
29-Mar-18 10:09 34.580438 -118.092232 204 9028ft 245kts
29-Mar-18 10:10 34.517956 -118.125503 203 9027ft 246kts
29-Mar-18 10:11 34.455422 -118.158522 203 9027ft 246kts
29-Mar-18 10:12 34.392716 -118.191833 203 9027ft 246kts
29-Mar-18 10:13 34.329422 -118.224713 202 8979ft 249kts
29-Mar-18 10:14 34.266268 -118.257497 203 8983ft 249kts
29-Mar-18 10:15 34.202346 -118.286792 182 8985ft 247kts
29-Mar-18 10:16 34.139149 -118.260265 152 8528ft 257kts
29-Mar-18 10:17 34.077464 -118.224390 154 7860ft 262kts
29-Mar-18 10:18 34.017230 -118.189559 153 6882ft 237kts
29-Mar-18 10:19 33.962505 -118.157399 154 6007ft 226kts
29-Mar-18 10:20 33.919703 -118.132666 154 5919ft 204kts
29-Mar-18 10:21 33.869839 -118.123449 191 5921ft 195kts
29-Mar-18 10:22 33.817335 -118.136414 191 5973ft 193kts
29-Mar-18 10:23 33.771426 -118.147793 191 5976ft 195kts
29-Mar-18 10:24 33.718329 -118.160977 191 5973ft 195kts
29-Mar-18 10:25 33.666501 -118.160908 142 5989ft 194kts
29-Mar-18 10:26 33.621882 -118.118811 140 5407ft 213kts
29-Mar-18 10:27 33.575372 -118.074664 142 4981ft 208kts
29-Mar-18 10:28 33.573903 -118.024231 32 4977ft 199kts
29-Mar-18 10:29 33.619974 -117.989895 29 4974ft 205kts
29-Mar-18 10:30 33.664353 -117.957217 32 4971ft 208kts
29-Mar-18 10:31 33.707475 -117.925441 33 4970ft 209kts
29-Mar-18 10:32 33.751944 -117.892664 31 4967ft 210kts
29-Mar-18 10:33 33.799441 -117.857539 31 3977ft 240kts
29-Mar-18 10:34 33.852070 -117.818397 31 2969ft 203kts
29-Mar-18 10:35 33.898146 -117.809318 328 2972ft 164kts
29-Mar-18 10:36 33.899683 -117.853095 197 2988ft 150kts
29-Mar-18 10:37 33.878900 -117.826274 72 2979ft 150kts
29-Mar-18 10:38 33.887946 -117.773092 81 2993ft 177kts
29-Mar-18 10:39 33.911300 -117.734843 332 3011ft 184kts
29-Mar-18 10:40 33.909133 -117.789998 253 3001ft 187kts
29-Mar-18 10:41 33.897701 -117.845615 256 2461ft 148kts
29-Mar-18 10:42 33.889484 -117.888719 256 1694ft 104kts
29-Mar-18 10:43 33.883310 -117.921053 256 1146ft 108kts
29-Mar-18 10:44 33.876720 -117.955329 256 704ft 108kts
29-Mar-18 10:45 33.871327 -117.983244 234 89ft 14kts
29-Mar-18 10:46 33.870264 -117.983068 264 90ft 0kts
29-Mar-18 10:47 33.870264 -117.983068 264 90ft 0kts
29-Mar-18 10:48 33.870264 -117.983068 264 90ft 0kts
29-Mar-18 10:49 33.870264 -117.983068 264 90ft 0kts
29-Mar-18 10:50 33.870264 -117.983068 264 90ft 0kts
29-Mar-18 10:51 33.870264 -117.983068 264 90ft 0kts
29-Mar-18 10:52 33.870264 -117.983068 264 90ft 0kts
29-Mar-18 10:53 33.870264 -117.983068 264 90ft 0kts
29-Mar-18 10:54 33.870264 -117.983068 264 90ft 0kts
29-Mar-18 10:55 33.870264 -117.983068 264 90ft 0kts
29-Mar-18 10:56 33.870264 -117.983068 264 90ft 0kts

Navigation Log

Ident Type
Flight plan parsing failed, navigation log unavailable